sensor_id;sensor_type;location;lat;lon;timestamp;temperature;humidity
75769;DHT22;64379;48.888;8.330;2022-10-16T00:02:24;16.50;78.10
75769;DHT22;64379;48.888;8.330;2022-10-16T00:04:49;16.40;78.00
75769;DHT22;64379;48.888;8.330;2022-10-16T00:07:15;16.40;78.10
75769;DHT22;64379;48.888;8.330;2022-10-16T00:09:41;16.40;78.40
75769;DHT22;64379;48.888;8.330;2022-10-16T00:12:06;16.40;78.60
75769;DHT22;64379;48.888;8.330;2022-10-16T00:14:32;16.30;79.00
75769;DHT22;64379;48.888;8.330;2022-10-16T00:16:58;16.20;79.00
75769;DHT22;64379;48.888;8.330;2022-10-16T00:19:24;16.20;79.80
75769;DHT22;64379;48.888;8.330;2022-10-16T00:21:49;16.10;80.50
75769;DHT22;64379;48.888;8.330;2022-10-16T00:24:15;16.00;80.80
75769;DHT22;64379;48.888;8.330;2022-10-16T00:26:41;16.00;81.20
75769;DHT22;64379;48.888;8.330;2022-10-16T00:29:07;15.90;81.40
75769;DHT22;64379;48.888;8.330;2022-10-16T00:31:33;15.80;81.80
75769;DHT22;64379;48.888;8.330;2022-10-16T00:33:59;15.80;82.20
75769;DHT22;64379;48.888;8.330;2022-10-16T00:36:26;15.60;82.50
75769;DHT22;64379;48.888;8.330;2022-10-16T00:38:54;15.60;82.50
75769;DHT22;64379;48.888;8.330;2022-10-16T00:41:21;15.60;82.70
75769;DHT22;64379;48.888;8.330;2022-10-16T00:46:20;15.40;83.20
75769;DHT22;64379;48.888;8.330;2022-10-16T00:49:05;15.40;83.30
75769;DHT22;64379;48.888;8.330;2022-10-16T00:51:38;15.30;83.60
75769;DHT22;64379;48.888;8.330;2022-10-16T00:54:09;15.30;83.70
75769;DHT22;64379;48.888;8.330;2022-10-16T00:56:35;15.20;84.10
75769;DHT22;64379;48.888;8.330;2022-10-16T00:59:04;15.20;84.20
75769;DHT22;64379;48.888;8.330;2022-10-16T01:01:31;15.20;84.40
75769;DHT22;64379;48.888;8.330;2022-10-16T01:03:57;15.20;84.70
75769;DHT22;64379;48.888;8.330;2022-10-16T01:14:28;15.30;85.00
75769;DHT22;64379;48.888;8.330;2022-10-16T01:17:20;15.30;85.00
75769;DHT22;64379;48.888;8.330;2022-10-16T01:22:48;15.20;85.20
75769;DHT22;64379;48.888;8.330;2022-10-16T01:25:39;15.00;85.40
75769;DHT22;64379;48.888;8.330;2022-10-16T01:28:11;15.00;85.70
75769;DHT22;64379;48.888;8.330;2022-10-16T01:30:40;15.00;85.70
75769;DHT22;64379;48.888;8.330;2022-10-16T01:33:11;15.00;85.80
75769;DHT22;64379;48.888;8.330;2022-10-16T01:35:42;15.00;85.70
75769;DHT22;64379;48.888;8.330;2022-10-16T01:38:23;15.00;85.70
75769;DHT22;64379;48.888;8.330;2022-10-16T01:40:55;15.00;85.80
75769;DHT22;64379;48.888;8.330;2022-10-16T01:43:34;15.00;85.90
75769;DHT22;64379;48.888;8.330;2022-10-16T01:46:01;15.00;86.10
75769;DHT22;64379;48.888;8.330;2022-10-16T01:48:31;15.00;86.30
75769;DHT22;64379;48.888;8.330;2022-10-16T01:51:05;15.00;86.30
75769;DHT22;64379;48.888;8.330;2022-10-16T01:53:32;15.00;86.30
75769;DHT22;64379;48.888;8.330;2022-10-16T01:55:59;15.00;86.50
75769;DHT22;64379;48.888;8.330;2022-10-16T01:58:27;14.90;86.60
75769;DHT22;64379;48.888;8.330;2022-10-16T02:00:56;14.90;86.60
75769;DHT22;64379;48.888;8.330;2022-10-16T02:03:22;14.90;86.50
75769;DHT22;64379;48.888;8.330;2022-10-16T02:05:53;14.80;86.50
75769;DHT22;64379;48.888;8.330;2022-10-16T02:08:23;14.80;86.50
75769;DHT22;64379;48.888;8.330;2022-10-16T02:10:56;14.70;86.70
75769;DHT22;64379;48.888;8.330;2022-10-16T02:13:46;14.70;86.90
75769;DHT22;64379;48.888;8.330;2022-10-16T02:16:14;14.70;87.00
75769;DHT22;64379;48.888;8.330;2022-10-16T02:18:40;14.80;87.00
75769;DHT22;64379;48.888;8.330;2022-10-16T02:24:08;14.70;87.00
75769;DHT22;64379;48.888;8.330;2022-10-16T02:26:47;14.70;87.20
75769;DHT22;64379;48.888;8.330;2022-10-16T02:29:18;14.70;87.20
75769;DHT22;64379;48.888;8.330;2022-10-16T02:31:50;14.70;87.20
75769;DHT22;64379;48.888;8.330;2022-10-16T02:34:18;14.60;87.20
75769;DHT22;64379;48.888;8.330;2022-10-16T02:36:45;14.60;87.30
75769;DHT22;64379;48.888;8.330;2022-10-16T02:39:12;14.60;87.40
75769;DHT22;64379;48.888;8.330;2022-10-16T02:41:38;14.60;87.20
75769;DHT22;64379;48.888;8.330;2022-10-16T02:44:04;14.60;87.20
75769;DHT22;64379;48.888;8.330;2022-10-16T02:46:29;14.50;87.20
75769;DHT22;64379;48.888;8.330;2022-10-16T02:48:55;14.50;87.20
75769;DHT22;64379;48.888;8.330;2022-10-16T02:51:21;14.50;87.30
75769;DHT22;64379;48.888;8.330;2022-10-16T02:53:46;14.50;87.40
75769;DHT22;64379;48.888;8.330;2022-10-16T02:56:12;14.40;87.50
75769;DHT22;64379;48.888;8.330;2022-10-16T02:58:37;14.40;87.30
75769;DHT22;64379;48.888;8.330;2022-10-16T03:01:03;14.30;87.30
75769;DHT22;64379;48.888;8.330;2022-10-16T03:03:29;14.30;87.50
75769;DHT22;64379;48.888;8.330;2022-10-16T03:05:54;14.30;87.50
75769;DHT22;64379;48.888;8.330;2022-10-16T03:08:20;14.30;87.50
75769;DHT22;64379;48.888;8.330;2022-10-16T03:10:49;14.30;87.70
75769;DHT22;64379;48.888;8.330;2022-10-16T03:13:15;14.20;87.70
75769;DHT22;64379;48.888;8.330;2022-10-16T03:15:40;14.20;87.60
75769;DHT22;64379;48.888;8.330;2022-10-16T03:18:06;14.20;87.70
75769;DHT22;64379;48.888;8.330;2022-10-16T03:20:32;14.20;87.80
75769;DHT22;64379;48.888;8.330;2022-10-16T03:22:58;14.30;88.00
75769;DHT22;64379;48.888;8.330;2022-10-16T03:25:24;14.30;88.10
75769;DHT22;64379;48.888;8.330;2022-10-16T03:27:49;14.30;88.00
75769;DHT22;64379;48.888;8.330;2022-10-16T03:30:15;14.30;87.80
75769;DHT22;64379;48.888;8.330;2022-10-16T03:32:41;14.30;87.80
75769;DHT22;64379;48.888;8.330;2022-10-16T03:35:07;14.30;87.80
75769;DHT22;64379;48.888;8.330;2022-10-16T03:37:33;14.30;87.80
75769;DHT22;64379;48.888;8.330;2022-10-16T03:40:00;14.30;87.90
75769;DHT22;64379;48.888;8.330;2022-10-16T03:42:26;14.30;87.90
75769;DHT22;64379;48.888;8.330;2022-10-16T03:44:52;14.30;87.80
75769;DHT22;64379;48.888;8.330;2022-10-16T03:47:17;14.30;87.70
75769;DHT22;64379;48.888;8.330;2022-10-16T03:49:54;14.30;87.60
75769;DHT22;64379;48.888;8.330;2022-10-16T03:52:19;14.30;87.80
75769;DHT22;64379;48.888;8.330;2022-10-16T03:54:45;14.30;88.00
75769;DHT22;64379;48.888;8.330;2022-10-16T03:57:10;14.30;88.00
75769;DHT22;64379;48.888;8.330;2022-10-16T03:59:36;14.30;88.00
75769;DHT22;64379;48.888;8.330;2022-10-16T04:02:02;14.30;88.00
75769;DHT22;64379;48.888;8.330;2022-10-16T04:04:27;14.30;88.00
75769;DHT22;64379;48.888;8.330;2022-10-16T04:06:53;14.30;88.00
75769;DHT22;64379;48.888;8.330;2022-10-16T04:09:19;14.30;87.90
75769;DHT22;64379;48.888;8.330;2022-10-16T04:11:45;14.30;88.00
75769;DHT22;64379;48.888;8.330;2022-10-16T04:14:10;14.30;88.00
75769;DHT22;64379;48.888;8.330;2022-10-16T04:16:36;14.30;88.20
75769;DHT22;64379;48.888;8.330;2022-10-16T04:19:01;14.30;88.30
75769;DHT22;64379;48.888;8.330;2022-10-16T04:21:27;14.30;88.30
75769;DHT22;64379;48.888;8.330;2022-10-16T04:23:52;14.30;88.20
75769;DHT22;64379;48.888;8.330;2022-10-16T04:26:20;14.40;88.20
75769;DHT22;64379;48.888;8.330;2022-10-16T04:28:46;14.40;88.20
75769;DHT22;64379;48.888;8.330;2022-10-16T04:31:11;14.40;88.10
75769;DHT22;64379;48.888;8.330;2022-10-16T04:33:37;14.40;88.00
75769;DHT22;64379;48.888;8.330;2022-10-16T04:36:05;14.50;88.00
75769;DHT22;64379;48.888;8.330;2022-10-16T04:38:30;14.50;87.90
75769;DHT22;64379;48.888;8.330;2022-10-16T04:40:56;14.40;87.90
75769;DHT22;64379;48.888;8.330;2022-10-16T04:43:23;14.40;88.00
75769;DHT22;64379;48.888;8.330;2022-10-16T04:45:51;14.40;88.10
75769;DHT22;64379;48.888;8.330;2022-10-16T04:48:17;14.50;88.10
75769;DHT22;64379;48.888;8.330;2022-10-16T04:50:43;14.50;88.20
75769;DHT22;64379;48.888;8.330;2022-10-16T04:53:08;14.40;88.30
75769;DHT22;64379;48.888;8.330;2022-10-16T04:55:34;14.50;88.30
75769;DHT22;64379;48.888;8.330;2022-10-16T04:58:00;14.50;88.30
75769;DHT22;64379;48.888;8.330;2022-10-16T05:00:26;14.50;88.30
75769;DHT22;64379;48.888;8.330;2022-10-16T05:02:51;14.50;88.20
75769;DHT22;64379;48.888;8.330;2022-10-16T05:05:17;14.50;88.10
75769;DHT22;64379;48.888;8.330;2022-10-16T05:07:45;14.50;88.00
75769;DHT22;64379;48.888;8.330;2022-10-16T05:10:11;14.60;88.00
75769;DHT22;64379;48.888;8.330;2022-10-16T05:12:37;14.60;88.00
75769;DHT22;64379;48.888;8.330;2022-10-16T05:15:03;14.70;87.90
75769;DHT22;64379;48.888;8.330;2022-10-16T05:17:28;14.70;87.80
75769;DHT22;64379;48.888;8.330;2022-10-16T05:19:54;14.70;87.60
75769;DHT22;64379;48.888;8.330;2022-10-16T05:22:20;14.70;87.60
75769;DHT22;64379;48.888;8.330;2022-10-16T05:24:45;14.70;87.40
75769;DHT22;64379;48.888;8.330;2022-10-16T05:27:11;14.80;87.20
75769;DHT22;64379;48.888;8.330;2022-10-16T05:29:47;14.80;87.00
75769;DHT22;64379;48.888;8.330;2022-10-16T05:32:17;14.80;87.00
75769;DHT22;64379;48.888;8.330;2022-10-16T05:34:45;14.80;87.00
75769;DHT22;64379;48.888;8.330;2022-10-16T05:37:11;14.80;86.90
75769;DHT22;64379;48.888;8.330;2022-10-16T05:39:38;14.80;86.80
75769;DHT22;64379;48.888;8.330;2022-10-16T05:42:05;14.90;86.70
75769;DHT22;64379;48.888;8.330;2022-10-16T05:44:30;14.80;86.70
75769;DHT22;64379;48.888;8.330;2022-10-16T05:46:56;14.80;86.70
75769;DHT22;64379;48.888;8.330;2022-10-16T05:49:21;14.80;86.90
75769;DHT22;64379;48.888;8.330;2022-10-16T05:51:47;14.80;87.00
75769;DHT22;64379;48.888;8.330;2022-10-16T05:54:13;14.80;87.00
75769;DHT22;64379;48.888;8.330;2022-10-16T05:56:41;14.80;87.10
75769;DHT22;64379;48.888;8.330;2022-10-16T05:59:07;14.80;87.00
75769;DHT22;64379;48.888;8.330;2022-10-16T06:01:33;14.90;87.10
75769;DHT22;64379;48.888;8.330;2022-10-16T06:03:58;14.80;86.90
75769;DHT22;64379;48.888;8.330;2022-10-16T06:06:26;14.80;87.10
75769;DHT22;64379;48.888;8.330;2022-10-16T06:08:54;14.80;87.10
75769;DHT22;64379;48.888;8.330;2022-10-16T06:14:55;14.70;87.10
75769;DHT22;64379;48.888;8.330;2022-10-16T06:17:42;14.70;87.10
75769;DHT22;64379;48.888;8.330;2022-10-16T06:20:08;14.60;87.30
75769;DHT22;64379;48.888;8.330;2022-10-16T06:22:55;14.60;87.40
75769;DHT22;64379;48.888;8.330;2022-10-16T06:25:20;14.70;87.50
75769;DHT22;64379;48.888;8.330;2022-10-16T06:28:06;14.70;87.20
75769;DHT22;64379;48.888;8.330;2022-10-16T06:30:47;14.80;87.00
75769;DHT22;64379;48.888;8.330;2022-10-16T06:33:13;14.80;86.80
75769;DHT22;64379;48.888;8.330;2022-10-16T06:35:53;14.70;86.80
75769;DHT22;64379;48.888;8.330;2022-10-16T06:38:19;14.80;87.10
75769;DHT22;64379;48.888;8.330;2022-10-16T06:40:45;14.80;87.00
75769;DHT22;64379;48.888;8.330;2022-10-16T06:43:10;14.80;87.20
75769;DHT22;64379;48.888;8.330;2022-10-16T06:45:36;14.80;87.10
75769;DHT22;64379;48.888;8.330;2022-10-16T06:48:02;14.90;87.00
75769;DHT22;64379;48.888;8.330;2022-10-16T06:50:28;14.90;86.70
75769;DHT22;64379;48.888;8.330;2022-10-16T06:52:53;14.90;86.80
75769;DHT22;64379;48.888;8.330;2022-10-16T06:55:22;14.90;87.00
75769;DHT22;64379;48.888;8.330;2022-10-16T06:57:48;15.00;86.90
75769;DHT22;64379;48.888;8.330;2022-10-16T07:00:14;15.00;86.80
75769;DHT22;64379;48.888;8.330;2022-10-16T07:02:39;15.00;86.50
75769;DHT22;64379;48.888;8.330;2022-10-16T07:05:05;15.00;86.40
75769;DHT22;64379;48.888;8.330;2022-10-16T07:07:31;15.20;86.20
75769;DHT22;64379;48.888;8.330;2022-10-16T07:09:56;15.20;86.20
75769;DHT22;64379;48.888;8.330;2022-10-16T07:12:22;15.30;85.90
75769;DHT22;64379;48.888;8.330;2022-10-16T07:14:47;15.40;85.70
75769;DHT22;64379;48.888;8.330;2022-10-16T07:17:20;15.50;85.10
75769;DHT22;64379;48.888;8.330;2022-10-16T07:19:46;15.60;84.40
75769;DHT22;64379;48.888;8.330;2022-10-16T07:22:11;15.80;84.60
75769;DHT22;64379;48.888;8.330;2022-10-16T07:24:37;15.80;84.50
75769;DHT22;64379;48.888;8.330;2022-10-16T07:27:05;15.80;84.00
75769;DHT22;64379;48.888;8.330;2022-10-16T07:29:31;15.80;84.30
75769;DHT22;64379;48.888;8.330;2022-10-16T07:31:56;15.80;84.50
75769;DHT22;64379;48.888;8.330;2022-10-16T07:34:24;15.80;84.50
75769;DHT22;64379;48.888;8.330;2022-10-16T07:36:53;15.90;84.50
75769;DHT22;64379;48.888;8.330;2022-10-16T07:39:19;15.90;84.60
75769;DHT22;64379;48.888;8.330;2022-10-16T07:41:45;16.00;84.80
75769;DHT22;64379;48.888;8.330;2022-10-16T07:44:13;16.00;85.00
75769;DHT22;64379;48.888;8.330;2022-10-16T07:46:38;16.10;84.70
75769;DHT22;64379;48.888;8.330;2022-10-16T07:49:04;16.20;84.30
75769;DHT22;64379;48.888;8.330;2022-10-16T07:51:30;16.40;83.90
75769;DHT22;64379;48.888;8.330;2022-10-16T07:53:55;16.50;83.40
75769;DHT22;64379;48.888;8.330;2022-10-16T07:56:21;16.70;83.40
75769;DHT22;64379;48.888;8.330;2022-10-16T07:58:47;16.70;83.20
75769;DHT22;64379;48.888;8.330;2022-10-16T08:01:15;16.70;83.80
75769;DHT22;64379;48.888;8.330;2022-10-16T08:03:42;16.70;83.50
75769;DHT22;64379;48.888;8.330;2022-10-16T08:06:11;16.90;83.60
75769;DHT22;64379;48.888;8.330;2022-10-16T08:08:37;17.00;83.20
75769;DHT22;64379;48.888;8.330;2022-10-16T08:11:02;17.00;82.70
75769;DHT22;64379;48.888;8.330;2022-10-16T08:13:31;17.00;83.10
75769;DHT22;64379;48.888;8.330;2022-10-16T08:15:56;17.00;83.20
75769;DHT22;64379;48.888;8.330;2022-10-16T08:18:22;16.90;83.70
75769;DHT22;64379;48.888;8.330;2022-10-16T08:20:48;16.90;83.60
75769;DHT22;64379;48.888;8.330;2022-10-16T08:23:13;17.00;83.30
75769;DHT22;64379;48.888;8.330;2022-10-16T08:25:40;17.20;82.50
75769;DHT22;64379;48.888;8.330;2022-10-16T08:28:08;17.50;81.70
75769;DHT22;64379;48.888;8.330;2022-10-16T08:30:34;17.40;80.70
75769;DHT22;64379;48.888;8.330;2022-10-16T08:33:00;17.20;81.10
75769;DHT22;64379;48.888;8.330;2022-10-16T08:35:26;17.10;81.70
75769;DHT22;64379;48.888;8.330;2022-10-16T08:37:52;17.20;82.30
75769;DHT22;64379;48.888;8.330;2022-10-16T08:40:24;17.40;80.90
75769;DHT22;64379;48.888;8.330;2022-10-16T08:43:19;17.80;80.70
75769;DHT22;64379;48.888;8.330;2022-10-16T08:48:48;21.10;71.60
75769;DHT22;64379;48.888;8.330;2022-10-16T08:51:35;23.40;63.00
75769;DHT22;64379;48.888;8.330;2022-10-16T08:56:29;23.20;61.30
75769;DHT22;64379;48.888;8.330;2022-10-16T08:58:57;22.80;63.60
75769;DHT22;64379;48.888;8.330;2022-10-16T09:01:32;23.10;63.60
75769;DHT22;64379;48.888;8.330;2022-10-16T09:07:04;22.10;64.70
75769;DHT22;64379;48.888;8.330;2022-10-16T09:09:50;21.50;66.90
75769;DHT22;64379;48.888;8.330;2022-10-16T09:12:21;20.60;68.20
75769;DHT22;64379;48.888;8.330;2022-10-16T09:15:01;20.30;69.70
75769;DHT22;64379;48.888;8.330;2022-10-16T09:18:14;20.40;67.80
75769;DHT22;64379;48.888;8.330;2022-10-16T09:23:54;20.30;67.10
75769;DHT22;64379;48.888;8.330;2022-10-16T09:26:25;20.10;67.80
75769;DHT22;64379;48.888;8.330;2022-10-16T09:28:52;19.90;68.00
75769;DHT22;64379;48.888;8.330;2022-10-16T09:31:21;19.70;69.10
75769;DHT22;64379;48.888;8.330;2022-10-16T09:34:00;19.70;68.60
75769;DHT22;64379;48.888;8.330;2022-10-16T09:36:38;19.80;68.70
75769;DHT22;64379;48.888;8.330;2022-10-16T09:39:07;20.00;69.60
75769;DHT22;64379;48.888;8.330;2022-10-16T09:41:36;19.90;68.30
75769;DHT22;64379;48.888;8.330;2022-10-16T09:44:12;19.70;68.50
75769;DHT22;64379;48.888;8.330;2022-10-16T09:46:40;19.70;68.40
75769;DHT22;64379;48.888;8.330;2022-10-16T09:51:46;19.90;68.40
75769;DHT22;64379;48.888;8.330;2022-10-16T09:54:18;20.70;66.40
75769;DHT22;64379;48.888;8.330;2022-10-16T09:56:44;20.90;64.50
75769;DHT22;64379;48.888;8.330;2022-10-16T09:59:21;21.00;64.50
75769;DHT22;64379;48.888;8.330;2022-10-16T10:01:53;21.00;65.10
75769;DHT22;64379;48.888;8.330;2022-10-16T10:04:22;21.40;65.10
75769;DHT22;64379;48.888;8.330;2022-10-16T10:06:55;21.80;62.50
75769;DHT22;64379;48.888;8.330;2022-10-16T10:14:31;31.30;44.00
75769;DHT22;64379;48.888;8.330;2022-10-16T10:19:54;35.00;38.20
75769;DHT22;64379;48.888;8.330;2022-10-16T10:28:10;37.90;34.70
75769;DHT22;64379;48.888;8.330;2022-10-16T10:46:41;24.00;54.00
75769;DHT22;64379;48.888;8.330;2022-10-16T10:49:32;22.80;57.40
75769;DHT22;64379;48.888;8.330;2022-10-16T11:00:56;21.70;59.80
75769;DHT22;64379;48.888;8.330;2022-10-16T11:05:56;21.50;60.80
75769;DHT22;64379;48.888;8.330;2022-10-16T11:08:32;21.50;61.30
75769;DHT22;64379;48.888;8.330;2022-10-16T11:11:11;21.50;61.30
75769;DHT22;64379;48.888;8.330;2022-10-16T11:14:00;21.50;61.20
75769;DHT22;64379;48.888;8.330;2022-10-16T11:16:37;21.90;60.20
75769;DHT22;64379;48.888;8.330;2022-10-16T11:22:30;23.00;58.90
75769;DHT22;64379;48.888;8.330;2022-10-16T11:25:13;24.20;56.60
75769;DHT22;64379;48.888;8.330;2022-10-16T11:28:02;24.70;54.60
75769;DHT22;64379;48.888;8.330;2022-10-16T11:30:31;24.40;55.20
75769;DHT22;64379;48.888;8.330;2022-10-16T11:38:30;23.00;57.70
75769;DHT22;64379;48.888;8.330;2022-10-16T11:41:13;23.20;58.20
75769;DHT22;64379;48.888;8.330;2022-10-16T11:46:41;23.50;56.80
75769;DHT22;64379;48.888;8.330;2022-10-16T11:49:18;23.50;58.80
75769;DHT22;64379;48.888;8.330;2022-10-16T11:54:32;23.40;58.20
75769;DHT22;64379;48.888;8.330;2022-10-16T11:57:09;23.10;57.80
75769;DHT22;64379;48.888;8.330;2022-10-16T12:08:12;22.50;62.50
75769;DHT22;64379;48.888;8.330;2022-10-16T12:10:41;22.40;62.10
75769;DHT22;64379;48.888;8.330;2022-10-16T12:13:30;22.20;59.90
75769;DHT22;64379;48.888;8.330;2022-10-16T12:18:33;21.90;61.90
75769;DHT22;64379;48.888;8.330;2022-10-16T12:20:59;21.80;63.60
75769;DHT22;64379;48.888;8.330;2022-10-16T12:23:31;21.70;61.30
75769;DHT22;64379;48.888;8.330;2022-10-16T12:26:00;21.50;62.20
75769;DHT22;64379;48.888;8.330;2022-10-16T12:28:29;21.40;63.40
75769;DHT22;64379;48.888;8.330;2022-10-16T12:31:01;21.40;64.20
75769;DHT22;64379;48.888;8.330;2022-10-16T12:33:31;21.30;65.00
75769;DHT22;64379;48.888;8.330;2022-10-16T12:36:00;21.30;66.40
75769;DHT22;64379;48.888;8.330;2022-10-16T12:38:38;21.40;64.00
75769;DHT22;64379;48.888;8.330;2022-10-16T12:41:11;21.50;65.10
75769;DHT22;64379;48.888;8.330;2022-10-16T12:43:41;21.50;62.70
75769;DHT22;64379;48.888;8.330;2022-10-16T12:48:42;21.60;65.70
75769;DHT22;64379;48.888;8.330;2022-10-16T12:56:55;21.70;62.60
75769;DHT22;64379;48.888;8.330;2022-10-16T13:10:42;21.10;64.40
75769;DHT22;64379;48.888;8.330;2022-10-16T13:13:23;21.10;66.40
75769;DHT22;64379;48.888;8.330;2022-10-16T13:21:25;21.00;64.80
75769;DHT22;64379;48.888;8.330;2022-10-16T13:23:58;21.00;66.40
75769;DHT22;64379;48.888;8.330;2022-10-16T13:26:53;21.00;67.70
75769;DHT22;64379;48.888;8.330;2022-10-16T13:29:21;21.10;64.30
75769;DHT22;64379;48.888;8.330;2022-10-16T13:31:46;21.00;64.40
75769;DHT22;64379;48.888;8.330;2022-10-16T13:34:21;21.10;67.30
75769;DHT22;64379;48.888;8.330;2022-10-16T13:36:50;20.90;67.30
75769;DHT22;64379;48.888;8.330;2022-10-16T13:39:23;20.90;69.50
75769;DHT22;64379;48.888;8.330;2022-10-16T13:42:03;20.80;70.50
75769;DHT22;64379;48.888;8.330;2022-10-16T13:44:31;20.70;70.60
75769;DHT22;64379;48.888;8.330;2022-10-16T13:47:00;20.60;72.20
75769;DHT22;64379;48.888;8.330;2022-10-16T13:49:26;20.50;72.90
75769;DHT22;64379;48.888;8.330;2022-10-16T13:51:59;20.50;73.40
75769;DHT22;64379;48.888;8.330;2022-10-16T13:54:26;20.40;74.00
75769;DHT22;64379;48.888;8.330;2022-10-16T13:56:54;20.30;74.40
75769;DHT22;64379;48.888;8.330;2022-10-16T13:59:25;20.30;74.70
75769;DHT22;64379;48.888;8.330;2022-10-16T14:01:53;20.30;75.10
75769;DHT22;64379;48.888;8.330;2022-10-16T14:04:20;20.10;75.80
75769;DHT22;64379;48.888;8.330;2022-10-16T14:06:49;20.20;75.10
75769;DHT22;64379;48.888;8.330;2022-10-16T14:09:27;20.30;75.00
75769;DHT22;64379;48.888;8.330;2022-10-16T14:11:59;20.40;74.40
75769;DHT22;64379;48.888;8.330;2022-10-16T14:14:29;20.70;74.00
75769;DHT22;64379;48.888;8.330;2022-10-16T14:16:58;20.90;73.50
75769;DHT22;64379;48.888;8.330;2022-10-16T14:19:28;21.00;72.50
75769;DHT22;64379;48.888;8.330;2022-10-16T14:21:56;21.10;69.90
75769;DHT22;64379;48.888;8.330;2022-10-16T14:24:27;21.10;71.40
75769;DHT22;64379;48.888;8.330;2022-10-16T14:26:57;21.10;71.70
75769;DHT22;64379;48.888;8.330;2022-10-16T14:29:24;20.90;71.00
75769;DHT22;64379;48.888;8.330;2022-10-16T14:32:04;20.80;72.90
75769;DHT22;64379;48.888;8.330;2022-10-16T14:34:38;20.60;73.30
75769;DHT22;64379;48.888;8.330;2022-10-16T14:37:24;20.50;75.30
75769;DHT22;64379;48.888;8.330;2022-10-16T14:39:51;20.60;75.20
75769;DHT22;64379;48.888;8.330;2022-10-16T14:42:18;20.80;72.80
75769;DHT22;64379;48.888;8.330;2022-10-16T14:44:45;21.00;73.30
75769;DHT22;64379;48.888;8.330;2022-10-16T14:47:14;21.20;71.60
75769;DHT22;64379;48.888;8.330;2022-10-16T14:49:41;21.30;71.60
75769;DHT22;64379;48.888;8.330;2022-10-16T14:52:11;21.30;70.30
75769;DHT22;64379;48.888;8.330;2022-10-16T14:54:37;21.10;71.90
75769;DHT22;64379;48.888;8.330;2022-10-16T14:57:04;20.90;72.40
75769;DHT22;64379;48.888;8.330;2022-10-16T14:59:39;20.70;71.40
75769;DHT22;64379;48.888;8.330;2022-10-16T15:04:48;20.50;74.60
75769;DHT22;64379;48.888;8.330;2022-10-16T15:07:13;20.50;74.80
75769;DHT22;64379;48.888;8.330;2022-10-16T15:09:39;20.50;75.20
75769;DHT22;64379;48.888;8.330;2022-10-16T15:12:05;20.50;75.50
75769;DHT22;64379;48.888;8.330;2022-10-16T15:14:30;20.50;75.10
75769;DHT22;64379;48.888;8.330;2022-10-16T15:16:58;20.40;74.90
75769;DHT22;64379;48.888;8.330;2022-10-16T15:19:23;20.50;75.60
75769;DHT22;64379;48.888;8.330;2022-10-16T15:21:49;20.50;75.90
75769;DHT22;64379;48.888;8.330;2022-10-16T15:24:15;20.50;75.40
75769;DHT22;64379;48.888;8.330;2022-10-16T15:26:41;20.50;75.20
75769;DHT22;64379;48.888;8.330;2022-10-16T15:29:07;20.50;75.70
75769;DHT22;64379;48.888;8.330;2022-10-16T15:31:33;20.50;75.30
75769;DHT22;64379;48.888;8.330;2022-10-16T15:33:59;20.40;75.50
75769;DHT22;64379;48.888;8.330;2022-10-16T15:36:31;20.40;76.10
75769;DHT22;64379;48.888;8.330;2022-10-16T15:38:59;20.30;76.90
75769;DHT22;64379;48.888;8.330;2022-10-16T15:41:25;20.20;77.20
75769;DHT22;64379;48.888;8.330;2022-10-16T15:43:51;20.10;77.10
75769;DHT22;64379;48.888;8.330;2022-10-16T15:46:19;20.00;76.70
75769;DHT22;64379;48.888;8.330;2022-10-16T15:48:45;19.90;76.90
75769;DHT22;64379;48.888;8.330;2022-10-16T15:51:11;19.90;77.80
75769;DHT22;64379;48.888;8.330;2022-10-16T15:53:37;19.70;78.10
75769;DHT22;64379;48.888;8.330;2022-10-16T15:56:04;19.70;77.90
75769;DHT22;64379;48.888;8.330;2022-10-16T15:58:30;19.60;78.30
75769;DHT22;64379;48.888;8.330;2022-10-16T16:00:56;19.50;78.70
75769;DHT22;64379;48.888;8.330;2022-10-16T16:03:22;19.50;79.00
75769;DHT22;64379;48.888;8.330;2022-10-16T16:05:48;19.30;79.10
75769;DHT22;64379;48.888;8.330;2022-10-16T16:08:13;19.20;79.50
75769;DHT22;64379;48.888;8.330;2022-10-16T16:10:39;19.10;80.10
75769;DHT22;64379;48.888;8.330;2022-10-16T16:13:04;19.00;80.40
75769;DHT22;64379;48.888;8.330;2022-10-16T16:15:30;18.90;80.80
75769;DHT22;64379;48.888;8.330;2022-10-16T16:17:56;19.00;80.70
75769;DHT22;64379;48.888;8.330;2022-10-16T16:20:21;19.10;79.70
75769;DHT22;64379;48.888;8.330;2022-10-16T16:22:47;18.90;80.40
75769;DHT22;64379;48.888;8.330;2022-10-16T16:25:13;18.60;80.70
75769;DHT22;64379;48.888;8.330;2022-10-16T16:27:38;18.40;81.80
75769;DHT22;64379;48.888;8.330;2022-10-16T16:30:06;18.30;82.40
75769;DHT22;64379;48.888;8.330;2022-10-16T16:32:33;18.20;82.30
75769;DHT22;64379;48.888;8.330;2022-10-16T16:34:59;18.10;82.90
75769;DHT22;64379;48.888;8.330;2022-10-16T16:37:24;18.00;83.30
75769;DHT22;64379;48.888;8.330;2022-10-16T16:39:52;18.00;83.90
75769;DHT22;64379;48.888;8.330;2022-10-16T16:42:19;17.90;84.20
75769;DHT22;64379;48.888;8.330;2022-10-16T16:44:45;17.80;84.50
75769;DHT22;64379;48.888;8.330;2022-10-16T16:47:12;17.70;84.60
75769;DHT22;64379;48.888;8.330;2022-10-16T16:49:38;17.60;85.00
75769;DHT22;64379;48.888;8.330;2022-10-16T16:52:03;17.60;84.10
75769;DHT22;64379;48.888;8.330;2022-10-16T16:54:29;17.70;83.20
75769;DHT22;64379;48.888;8.330;2022-10-16T16:56:55;17.60;83.20
75769;DHT22;64379;48.888;8.330;2022-10-16T16:59:21;17.50;83.90
75769;DHT22;64379;48.888;8.330;2022-10-16T17:01:47;17.40;84.10
75769;DHT22;64379;48.888;8.330;2022-10-16T17:04:14;17.30;84.50
75769;DHT22;64379;48.888;8.330;2022-10-16T17:06:41;17.20;84.60
75769;DHT22;64379;48.888;8.330;2022-10-16T17:09:07;17.20;84.80
75769;DHT22;64379;48.888;8.330;2022-10-16T17:11:33;17.10;84.80
75769;DHT22;64379;48.888;8.330;2022-10-16T17:13:59;17.00;84.60
75769;DHT22;64379;48.888;8.330;2022-10-16T17:16:34;17.00;84.80
75769;DHT22;64379;48.888;8.330;2022-10-16T17:19:05;16.90;84.70
75769;DHT22;64379;48.888;8.330;2022-10-16T17:21:30;16.80;84.90
75769;DHT22;64379;48.888;8.330;2022-10-16T17:23:57;16.80;85.10
75769;DHT22;64379;48.888;8.330;2022-10-16T17:26:23;16.70;84.90
75769;DHT22;64379;48.888;8.330;2022-10-16T17:28:54;16.60;84.90
75769;DHT22;64379;48.888;8.330;2022-10-16T17:31:23;16.60;84.80
75769;DHT22;64379;48.888;8.330;2022-10-16T17:33:49;16.60;84.40
75769;DHT22;64379;48.888;8.330;2022-10-16T17:36:16;16.60;84.00
75769;DHT22;64379;48.888;8.330;2022-10-16T17:38:42;16.60;84.10
75769;DHT22;64379;48.888;8.330;2022-10-16T17:43:41;16.50;84.20
75769;DHT22;64379;48.888;8.330;2022-10-16T17:46:08;16.40;84.40
75769;DHT22;64379;48.888;8.330;2022-10-16T17:48:42;16.40;84.50
75769;DHT22;64379;48.888;8.330;2022-10-16T17:51:09;16.40;84.00
75769;DHT22;64379;48.888;8.330;2022-10-16T17:53:36;16.20;84.00